Time;durP1;ratioP1;P1;durP2;ratioP2;P2;SDS_P1;SDS_P2;PMS_P1;PMS_P2;Temp;Humidity;BMP_temperature;BMP_pressure;BME280_temperature;BME280_humidity;BME280_pressure;Samples;Min_cycle;Max_cycle;Signal;HPM_P1;HPM_P2
2022/10/26 00:00:41;;;;;;;6.30;1.55;;;12.00;99.90;;;11.51;100.00;97274.56;5016992;28;20498;-44
2022/10/26 00:03:06;;;;;;;4.13;1.38;;;12.00;99.90;;;11.55;100.00;97271.69;5012929;28;20937;-44
2022/10/26 00:05:33;;;;;;;3.13;1.50;;;12.00;99.90;;;11.58;100.00;97276.00;5008628;28;20021;-44
2022/10/26 00:08:00;;;;;;;2.90;1.83;;;12.00;99.90;;;11.45;100.00;97249.28;5018313;28;20032;-44
2022/10/26 00:10:26;;;;;;;3.13;1.48;;;12.00;99.90;;;11.61;100.00;97278.50;5017156;28;20577;-48
2022/10/26 00:12:52;;;;;;;3.33;1.20;;;12.10;99.90;;;11.57;100.00;97272.47;5009745;28;20037;-48
2022/10/26 00:15:19;;;;;;;6.00;1.90;;;12.10;99.90;;;11.60;100.00;97280.28;5014569;28;20040;-44
2022/10/26 00:17:46;;;;;;;2.65;1.40;;;12.00;99.90;;;11.60;100.00;97280.28;5004663;28;20091;-45
2022/10/26 00:20:13;;;;;;;2.83;1.45;;;12.00;99.90;;;11.60;100.00;97285.56;5015226;28;20036;-47
2022/10/26 00:22:39;;;;;;;4.32;1.58;;;12.10;99.90;;;11.63;100.00;97279.31;5019201;28;20160;-46
2022/10/26 00:25:06;;;;;;;2.40;1.55;;;12.10;99.90;;;11.63;100.00;97277.53;5018155;28;20025;-45
2022/10/26 00:27:33;;;;;;;3.00;1.45;;;12.10;99.90;;;11.60;100.00;97269.72;5013950;28;21285;-46
2022/10/26 00:30:00;;;;;;;2.25;1.40;;;12.10;99.90;;;11.64;100.00;97273.94;5023792;28;20025;-45
2022/10/26 00:32:26;;;;;;;2.65;1.50;;;12.10;99.90;;;11.65;100.00;97277.47;5018844;28;20040;-45
2022/10/26 00:34:52;;;;;;;3.22;1.60;;;12.10;99.90;;;11.50;100.00;97255.19;5012310;28;20028;-46
2022/10/26 00:37:17;;;;;;;2.28;1.60;;;12.10;99.90;;;11.62;100.00;97265.22;5023004;28;20115;-45
2022/10/26 00:39:43;;;;;;;2.50;1.48;;;12.10;99.90;;;11.67;100.00;97272.13;5021263;28;20033;-44
2022/10/26 00:42:16;;;;;;;3.55;1.67;;;12.10;99.90;;;11.68;100.00;97281.75;5024085;28;20080;-44
2022/10/26 00:44:47;;;;;;;1.70;1.40;;;12.10;99.90;;;11.70;100.00;97277.25;5007799;28;20434;-46
2022/10/26 00:47:35;;;;;;;2.20;1.58;;;12.20;99.90;;;11.70;100.00;97277.25;5031343;28;20033;-46
2022/10/26 00:50:24;;;;;;;3.30;1.50;;;12.10;99.90;;;11.73;100.00;97279.75;4998248;28;20029;-45
2022/10/26 00:52:53;;;;;;;3.80;1.55;;;12.20;99.90;;;11.76;100.00;97282.28;5011980;28;20052;-44
2022/10/26 00:55:23;;;;;;;2.25;1.45;;;12.20;99.90;;;11.62;100.00;97256.44;5017822;28;20072;-44
2022/10/26 00:57:52;;;;;;;1.85;1.38;;;12.20;99.90;;;11.76;100.00;97279.63;5004233;28;20656;-45
2022/10/26 01:00:18;;;;;;;3.35;1.50;;;12.20;99.90;;;11.78;100.00;97278.63;5003981;28;20553;-45
2022/10/26 01:02:47;;;;;;;4.40;1.60;;;12.20;99.90;;;11.81;100.00;97277.66;5014984;28;20037;-45
2022/10/26 01:05:16;;;;;;;4.00;1.77;;;12.30;99.90;;;11.80;100.00;97273.28;4994285;28;22114;-44
2022/10/26 01:07:43;;;;;;;2.70;1.40;;;12.30;99.90;;;11.84;100.00;97282.78;4998310;28;20040;-45
2022/10/26 01:10:09;;;;;;;3.50;1.33;;;12.30;99.90;;;11.84;100.00;97283.66;4986717;28;20064;-45
2022/10/26 01:12:36;;;;;;;2.53;1.30;;;12.30;99.90;;;11.86;100.00;97275.63;4983621;28;20039;-44
2022/10/26 01:15:03;;;;;;;2.95;1.52;;;12.30;99.90;;;11.88;100.00;97276.47;5011571;28;20041;-44
2022/10/26 01:17:50;;;;;;;3.10;1.50;;;12.30;99.90;;;11.91;100.00;97271.03;5017053;28;20036;-43
2022/10/26 01:21:13;;;;;;;3.10;1.70;;;12.30;99.90;;;11.92;100.00;97270.13;4996953;28;20041;-46
2022/10/26 01:24:12;;;;;;;6.55;1.90;;;12.40;99.90;;;11.92;100.00;97266.66;5021116;28;20041;-44
2022/10/26 01:27:31;;;;;;;2.20;1.50;;;12.40;99.90;;;11.92;100.00;97254.28;5018236;28;20044;-45
2022/10/26 01:30:25;;;;;;;2.20;1.40;;;12.40;99.90;;;11.94;100.00;97248.94;5009381;28;20167;-45
2022/10/26 01:33:29;;;;;;;3.40;1.42;;;12.40;99.90;;;11.92;100.00;97248.16;5022347;28;20044;-44
2022/10/26 01:36:10;;;;;;;2.25;1.25;;;12.40;99.90;;;11.89;100.00;97249.09;5022274;28;20024;-46
2022/10/26 01:38:59;;;;;;;4.97;1.60;;;12.30;99.90;;;11.75;100.00;97225.91;5011101;28;20071;-46
2022/10/26 01:41:34;;;;;;;4.28;1.60;;;12.30;99.90;;;11.89;100.00;97243.81;4999645;28;20037;-48
2022/10/26 01:44:09;;;;;;;2.65;1.40;;;12.30;99.90;;;11.89;100.00;97254.38;5020416;28;20029;-45
2022/10/26 01:46:43;;;;;;;4.28;1.50;;;12.30;99.90;;;11.89;100.00;97257.00;4991131;28;20534;-46
2022/10/26 01:49:16;;;;;;;3.40;1.60;;;12.30;99.90;;;11.89;100.00;97242.94;5000425;28;20033;-44
2022/10/26 01:51:43;;;;;;;;;;;12.30;99.90;;;11.88;100.00;97239.47;4995357;28;21530;-44
2022/10/26 01:54:09;;;;;;;3.83;1.50;;;12.30;99.90;;;11.90;100.00;97249.94;4985247;28;19924;-47
2022/10/26 01:56:40;;;;;;;2.90;1.30;;;12.30;99.90;;;11.89;100.00;97242.94;5015947;28;20029;-46
2022/10/26 01:59:25;;;;;;;3.35;1.42;;;12.30;99.90;;;11.87;100.00;97242.16;4998586;28;20041;-45
2022/10/26 02:02:18;;;;;;;3.15;1.50;;;12.30;99.90;;;11.84;100.00;97238.75;5014760;28;20657;-45
2022/10/26 02:04:59;;;;;;;;;;;12.30;99.90;;;11.82;100.00;97224.72;4992287;28;20116;-43
2022/10/26 02:07:40;;;;;;;1.90;1.30;;;12.30;99.90;;;11.78;100.00;97212.56;5012952;28;19920;-46
2022/10/26 02:10:11;;;;;;;2.83;1.90;;;12.20;99.90;;;11.77;100.00;97220.56;5017473;28;20667;-45
2022/10/26 02:13:01;;;;;;;3.05;1.67;;;12.20;99.90;;;11.73;100.00;97216.34;5021007;28;20451;-43
2022/10/26 02:15:53;;;;;;;3.28;1.88;;;12.20;99.90;;;11.71;100.00;97208.50;5019750;28;20057;-44
2022/10/26 02:18:44;;;;;;;4.88;2.08;;;12.20;99.90;;;11.67;100.00;97204.28;5016177;28;20029;-44
2022/10/26 02:21:17;;;;;;;3.35;2.10;;;12.10;99.90;;;11.56;100.00;97202.13;5003989;28;20299;-45
2022/10/26 02:23:45;;;;;;;;;;;12.00;99.90;;;11.54;100.00;97217.19;4990317;28;20028;-46
2022/10/26 02:26:15;;;;;;;9.38;2.67;;;12.00;99.90;;;11.49;100.00;97228.88;4995655;28;20948;-44
2022/10/26 02:28:49;;;;;;;3.53;2.35;;;12.00;99.90;;;11.48;100.00;97241.19;4992044;28;20059;-46
2022/10/26 02:31:16;;;;;;;3.75;2.45;;;12.00;99.90;;;11.46;100.00;97241.25;5018344;28;20102;-45
2022/10/26 02:33:48;;;;;;;7.30;2.58;;;11.90;99.90;;;11.44;100.00;97245.75;5016130;28;20146;-43
2022/10/26 02:36:24;;;;;;;4.30;2.75;;;11.90;99.90;;;11.46;100.00;97248.31;5008763;28;20071;-45
2022/10/26 02:38:53;;;;;;;3.42;2.17;;;11.90;99.90;;;11.45;100.00;97244.84;5006238;28;20028;-46
2022/10/26 02:41:20;;;;;;;4.78;2.75;;;11.90;99.90;;;11.45;100.00;97251.91;5022789;28;20060;-45
2022/10/26 02:44:07;;;;;;;3.40;2.20;;;11.90;99.90;;;11.45;100.00;97250.13;5001955;28;20040;-43
2022/10/26 02:46:33;;;;;;;3.85;2.25;;;11.90;99.90;;;11.43;100.00;97251.09;5031309;28;20041;-44
2022/10/26 02:49:00;;;;;;;3.22;1.98;;;11.90;99.90;;;11.43;100.00;97248.44;5021572;28;20129;-44
2022/10/26 02:51:45;;;;;;;4.53;1.90;;;11.90;99.90;;;11.40;100.00;97230.13;5004192;28;20065;-45
2022/10/26 02:54:29;;;;;;;2.72;1.83;;;11.90;99.90;;;11.44;100.00;97242.25;5007725;28;20028;-46
2022/10/26 02:57:07;;;;;;;2.58;1.60;;;11.90;99.90;;;11.45;100.00;97250.13;5001758;28;20068;-47
2022/10/26 02:59:36;;;;;;;6.00;2.15;;;11.90;99.90;;;11.41;100.00;97247.66;5020041;28;20029;-45
2022/10/26 03:02:03;;;;;;;3.45;1.60;;;11.90;99.90;;;11.40;100.00;97245.97;5004155;28;20036;-46
2022/10/26 03:04:31;;;;;;;3.05;1.70;;;11.90;99.90;;;11.36;100.00;97239.94;4993115;28;20443;-46
2022/10/26 03:06:57;;;;;;;3.38;1.60;;;11.80;99.90;;;11.33;100.00;97255.91;4996660;28;20044;-45
2022/10/26 03:09:23;;;;;;;2.42;1.40;;;11.80;99.90;;;11.33;100.00;97262.97;5018824;28;20407;-44
2022/10/26 03:11:49;;;;;;;1.88;1.45;;;11.80;99.90;;;11.31;100.00;97270.13;5019720;28;20057;-45
2022/10/26 03:14:14;;;;;;;3.45;1.70;;;11.80;99.90;;;11.32;100.00;97275.31;5021065;28;20123;-44
2022/10/26 03:16:40;;;;;;;2.72;1.48;;;11.80;99.90;;;11.35;100.00;97266.41;5025008;28;20032;-44
2022/10/26 03:19:06;;;;;;;2.88;1.67;;;11.80;99.90;;;11.39;100.00;97270.63;5018527;28;20033;-45
2022/10/26 03:21:31;;;;;;;1.90;1.50;;;11.90;99.90;;;11.43;100.00;97272.22;5019111;28;20048;-44
2022/10/26 03:23:57;;;;;;;2.72;1.52;;;11.90;99.90;;;11.48;100.00;97280.81;5014061;28;20143;-44
2022/10/26 03:26:23;;;;;;;2.47;1.65;;;11.90;99.90;;;11.54;100.00;97284.97;5021293;28;20058;-44
2022/10/26 03:28:49;;;;;;;3.47;1.67;;;12.00;99.90;;;11.56;100.00;97280.50;5020319;28;20036;-44
2022/10/26 03:31:14;;;;;;;3.53;1.75;;;12.00;99.90;;;11.56;100.00;97278.72;5027632;28;20037;-45
2022/10/26 03:33:40;;;;;;;3.40;1.80;;;12.00;99.90;;;11.59;100.00;97268.03;5022485;28;20371;-44
2022/10/26 03:36:07;;;;;;;3.85;2.20;;;12.10;99.90;;;11.56;100.00;97281.34;5030290;28;20033;-44
2022/10/26 03:38:32;;;;;;;3.47;1.80;;;12.10;99.90;;;11.46;100.00;97274.72;5033644;28;20518;-46
2022/10/26 03:40:58;;;;;;;2.83;1.80;;;12.00;99.90;;;11.61;100.00;97289.06;5012582;28;20079;-46
2022/10/26 03:43:24;;;;;;;6.70;2.28;;;12.10;99.90;;;11.63;100.00;97293.38;5018453;28;20033;-47
2022/10/26 03:45:50;;;;;;;5.18;2.38;;;12.10;99.90;;;11.49;100.00;97255.28;5017232;28;20072;-45
2022/10/26 03:48:15;;;;;;;5.13;2.28;;;12.10;99.90;;;11.63;100.00;97285.44;5021770;28;20127;-44
2022/10/26 03:50:41;;;;;;;3.03;1.80;;;12.10;99.90;;;11.64;100.00;97275.72;5006133;28;20033;-43
2022/10/26 03:53:07;;;;;;;3.47;1.90;;;12.10;99.90;;;11.65;100.00;97290.66;5014528;28;20041;-43
2022/10/26 03:55:33;;;;;;;2.50;1.73;;;12.10;99.90;;;11.64;100.00;97276.56;5013517;28;20032;-44
2022/10/26 03:57:58;;;;;;;4.35;2.05;;;12.10;99.90;;;11.65;100.00;97280.09;5009391;28;20099;-47
2022/10/26 04:00:24;;;;;;;4.05;2.13;;;12.10;99.90;;;11.63;100.00;97274.88;5003165;28;20151;-45
2022/10/26 04:02:58;;;;;;;3.70;2.10;;;12.10;99.90;;;11.63;100.00;97274.03;5005376;28;20032;-44
2022/10/26 04:05:26;;;;;;;4.13;1.73;;;12.10;99.90;;;11.60;100.00;97269.72;5008395;28;20114;-44
2022/10/26 04:07:58;;;;;;;2.50;2.00;;;12.00;99.90;;;11.55;100.00;97260.28;5017215;28;21028;-44
2022/10/26 04:10:26;;;;;;;3.15;1.70;;;12.00;99.90;;;11.52;100.00;97255.13;5025393;28;20128;-43
2022/10/26 04:12:53;;;;;;;3.25;1.92;;;12.00;99.90;;;11.57;100.00;97259.28;5000658;28;20091;-44
2022/10/26 04:15:19;;;;;;;3.47;2.20;;;12.00;99.90;;;11.53;100.00;97249.78;5016512;28;20705;-46
2022/10/26 04:17:45;;;;;;;4.50;2.05;;;12.00;99.90;;;11.49;100.00;97240.28;4996154;28;20041;-44
2022/10/26 04:20:11;;;;;;;4.07;1.90;;;12.00;99.90;;;11.59;100.00;97243.38;5014697;28;20060;-45
2022/10/26 04:22:37;;;;;;;3.15;1.75;;;12.10;99.90;;;11.65;100.00;97251.03;5019372;28;20054;-44
2022/10/26 04:25:04;;;;;;;2.90;1.80;;;12.10;99.90;;;11.67;100.00;97248.34;5016834;28;20741;-45
2022/10/26 04:27:30;;;;;;;4.25;2.05;;;12.10;99.90;;;11.69;100.00;97249.13;5027248;28;20041;-46
2022/10/26 04:29:56;;;;;;;3.75;1.80;;;12.20;99.90;;;11.71;100.00;97242.84;5024817;28;20036;-44
2022/10/26 04:32:22;;;;;;;4.32;1.80;;;12.10;99.90;;;11.74;100.00;97255.06;5024255;28;20056;-44
2022/10/26 04:34:47;;;;;;;4.15;1.80;;;12.20;99.90;;;11.75;100.00;97267.34;5014902;28;20486;-44
2022/10/26 04:37:13;;;;;;;2.83;1.70;;;12.20;99.90;;;11.78;100.00;97257.50;5021767;28;20138;-44
2022/10/26 04:39:39;;;;;;;3.20;1.88;;;12.30;99.90;;;11.79;100.00;97260.97;5023185;28;20033;-44
2022/10/26 04:42:04;;;;;;;3.10;1.80;;;12.30;99.90;;;11.85;100.00;97266.00;5024262;28;20112;-45
2022/10/26 04:44:30;;;;;;;3.70;2.20;;;12.30;99.90;;;11.82;100.00;97253.78;5004003;28;20040;-47
2022/10/26 04:46:56;;;;;;;3.47;1.92;;;12.30;99.90;;;11.90;100.00;97269.34;5024910;28;20387;-44
2022/10/26 04:49:21;;;;;;;4.57;2.28;;;12.30;99.90;;;11.91;100.00;97259.63;5024760;28;20135;-47
2022/10/26 04:51:47;;;;;;;5.22;2.13;;;12.40;99.90;;;11.95;100.00;97256.78;5020698;28;20025;-45
2022/10/26 04:54:13;;;;;;;4.80;1.95;;;12.40;99.90;;;11.96;100.00;97257.66;5031180;28;20035;-44
2022/10/26 04:56:39;;;;;;;6.03;2.28;;;12.40;99.90;;;11.95;100.00;97248.88;5032609;28;20032;-46
2022/10/26 04:59:05;;;;;;;6.30;2.40;;;12.40;99.90;;;11.96;100.00;97255.84;5026756;28;20033;-46
2022/10/26 05:01:31;;;;;;;4.25;2.08;;;12.40;99.90;;;11.96;100.00;97253.22;5032782;28;20037;-48
2022/10/26 05:03:56;;;;;;;3.00;1.60;;;12.40;99.90;;;11.99;100.00;97253.06;5032460;28;20029;-47
2022/10/26 05:06:22;;;;;;;3.85;1.85;;;12.50;99.90;;;12.02;100.00;97255.59;5031343;28;20033;-47
2022/10/26 05:08:48;;;;;;;5.93;1.80;;;12.50;99.90;;;12.11;100.00;97258.72;5032813;28;20025;-47
2022/10/26 05:11:14;;;;;;;3.20;1.85;;;12.50;99.90;;;12.17;100.00;97258.47;5024005;28;23564;-47
2022/10/26 05:13:40;;;;;;;2.90;1.75;;;12.60;99.90;;;12.24;100.00;97265.19;5012376;28;20025;-47
2022/10/26 05:16:06;;;;;;;7.00;1.98;;;12.70;99.90;;;12.30;100.00;97267.53;5035940;28;20021;-48
2022/10/26 05:18:32;;;;;;;3.15;1.80;;;12.70;99.90;;;12.38;100.00;97260.13;5036587;28;20032;-46
2022/10/26 05:20:57;;;;;;;3.85;2.35;;;12.80;99.90;;;12.46;100.00;97258.91;5037055;28;20518;-45
2022/10/26 05:23:23;;;;;;;3.55;1.55;;;12.90;99.90;;;12.47;100.00;97255.31;5034091;28;20049;-48
2022/10/26 05:25:49;;;;;;;2.08;1.58;;;12.90;99.90;;;12.49;100.00;97272.84;5032765;28;20086;-47
2022/10/26 05:28:17;;;;;;;5.35;1.85;;;12.90;99.90;;;12.44;100.00;97264.25;5027776;28;20041;-47
2022/10/26 05:30:45;;;;;;;2.80;1.50;;;13.00;99.90;;;12.52;100.00;97282.41;5035418;28;20025;-47
2022/10/26 05:33:12;;;;;;;3.50;1.77;;;13.00;99.90;;;12.55;100.00;97272.53;5020757;28;20441;-48
2022/10/26 05:35:38;;;;;;;2.88;1.40;;;13.00;99.90;;;12.56;100.00;97283.97;5031109;28;20017;-44
2022/10/26 05:38:16;;;;;;;2.92;1.70;;;13.00;99.90;;;12.43;100.00;97254.59;5013769;28;20028;-45
2022/10/26 05:40:49;;;;;;;3.55;1.73;;;13.00;99.90;;;12.61;100.00;97287.28;5036939;28;20025;-49
2022/10/26 05:43:15;;;;;;;2.22;1.55;;;13.00;99.90;;;12.59;100.00;97286.47;5014952;28;20083;-48
2022/10/26 05:45:41;;;;;;;4.93;1.77;;;13.10;99.90;;;12.65;100.00;97287.97;5028584;28;20037;-48
2022/10/26 05:48:06;;;;;;;5.20;1.70;;;13.10;99.90;;;12.65;100.00;97288.88;5033092;28;20563;-48
2022/10/26 05:50:32;;;;;;;3.47;1.42;;;13.10;99.90;;;12.64;100.00;97295.06;5037674;28;20116;-48
2022/10/26 05:52:58;;;;;;;2.15;1.65;;;13.10;99.90;;;12.54;100.00;97277.91;5048039;23;20029;-58
2022/10/26 05:55:24;;;;;;;3.90;1.50;;;13.00;99.90;;;12.63;100.00;97303.91;4983889;28;20462;-58
2022/10/26 05:57:50;;;;;;;2.63;1.52;;;13.10;99.90;;;12.61;100.00;97303.13;4978715;28;20359;-59
2022/10/26 06:00:19;;;;;;;3.58;1.63;;;13.10;99.90;;;12.56;100.00;97302.50;4978381;28;20037;-58
2022/10/26 06:03:14;;;;;;;2.53;1.40;;;13.10;99.90;;;12.46;100.00;97291.50;4977853;28;20038;-59
2022/10/26 06:05:58;;;;;;;3.15;1.70;;;13.00;99.90;;;12.60;100.00;97310.22;4969715;28;20038;-58
2022/10/26 06:08:26;;;;;;;2.22;1.20;;;13.00;99.90;;;12.60;100.00;97326.09;4970178;28;20458;-59
2022/10/26 06:10:54;;;;;;;2.05;1.40;;;13.00;99.90;;;12.60;100.00;97317.31;4968296;28;20149;-56
2022/10/26 06:13:20;;;;;;;4.65;1.60;;;13.00;99.90;;;12.62;100.00;97327.84;4974540;28;20242;-55
2022/10/26 06:16:06;;;;;;;2.33;1.40;;;13.10;99.90;;;12.60;100.00;97341.97;4968874;28;20037;-56
2022/10/26 06:18:47;;;;;;;4.57;1.70;;;13.10;99.90;;;12.59;100.00;97348.19;4974558;28;20042;-56
2022/10/26 06:21:26;;;;;;;4.22;1.90;;;13.00;99.90;;;12.59;100.00;97348.19;4973716;28;20116;-56
2022/10/26 06:24:08;;;;;;;5.60;2.08;;;13.10;99.90;;;12.60;100.00;97360.50;4968044;28;20034;-56
2022/10/26 06:27:00;;;;;;;;;;;13.00;99.90;;;12.63;100.00;97364.78;4966805;28;20039;-56
2022/10/26 06:30:02;;;;;;;3.97;1.50;;;13.10;99.90;;;12.70;100.00;97373.28;4970457;28;20325;-56
2022/10/26 06:32:29;;;;;;;2.85;1.60;;;13.20;99.90;;;12.77;100.00;97369.44;4973610;28;20081;-56
2022/10/26 06:35:24;;;;;;;3.75;1.70;;;13.20;99.90;;;12.81;100.00;97368.34;4958082;28;20494;-56
2022/10/26 06:37:51;;;;;;;6.15;2.05;;;13.30;99.90;;;12.92;100.00;97367.84;4967159;28;20093;-56
2022/10/26 06:40:18;;;;;;;5.05;1.85;;;13.30;99.90;;;12.99;100.00;97366.63;4969884;28;20038;-56
2022/10/26 06:42:44;;;;;;;5.32;1.83;;;13.40;99.90;;;13.09;100.00;97359.13;4966145;28;20360;-55
2022/10/26 06:45:13;;;;;;;4.85;1.73;;;13.50;99.90;;;13.25;100.00;97369.84;4964169;28;20136;-56
2022/10/26 06:48:15;;;;;;;5.93;1.90;;;13.60;99.90;;;13.33;100.00;97367.72;4970217;28;20101;-56
2022/10/26 06:50:52;;;;;;;4.28;1.85;;;13.70;99.90;;;13.37;100.00;97364.00;4958861;28;20145;-56
2022/10/26 06:53:32;;;;;;;6.80;1.70;;;13.80;99.90;;;13.53;100.00;97369.38;4971536;28;20488;-56
2022/10/26 06:55:59;;;;;;;5.10;1.80;;;13.90;99.90;;;13.59;100.00;97373.53;4964085;28;20042;-56
2022/10/26 06:58:34;;;;;;;3.65;1.52;;;14.00;99.90;;;13.66;100.00;97369.66;4963790;28;20030;-56
2022/10/26 07:00:59;;;;;;;4.15;2.00;;;14.00;99.90;;;13.68;100.00;97384.53;4961991;28;20058;-56
2022/10/26 07:03:25;;;;;;;2.97;1.85;;;14.10;99.90;;;13.74;100.00;97378.06;4971623;28;20146;-56
2022/10/26 07:05:51;;;;;;;8.30;2.00;;;14.20;99.90;;;13.80;100.00;97385.72;4971796;28;20396;-56
2022/10/26 07:08:17;;;;;;;2.72;1.67;;;14.20;99.90;;;13.81;100.00;97392.72;4972078;28;20037;-56
2022/10/26 07:10:43;;;;;;;3.63;1.67;;;14.20;99.90;;;13.89;100.00;97397.63;4968251;28;20030;-56
2022/10/26 07:13:10;;;;;;;6.20;1.92;;;14.30;99.90;;;13.91;100.00;97403.75;4963473;28;20034;-56
2022/10/26 07:15:37;;;;;;;9.68;2.08;;;14.30;99.90;;;13.92;100.00;97405.44;4970129;28;20400;-56
2022/10/26 07:18:04;;;;;;;6.35;1.80;;;14.30;99.90;;;13.95;100.00;97402.66;4970736;28;20566;-56
2022/10/26 07:20:35;;;;;;;8.98;1.77;;;14.40;99.90;;;13.84;100.00;97383.78;4970795;28;20484;-56
2022/10/26 07:23:01;;;;;;;6.50;1.75;;;14.40;99.90;;;14.01;100.00;97404.97;4963178;28;20118;-56
2022/10/26 07:25:27;;;;;;;8.57;1.70;;;14.40;99.90;;;14.04;100.00;97411.94;4965195;28;20027;-56
2022/10/26 07:27:59;;;;;;;6.85;1.85;;;14.40;99.90;;;14.08;100.00;97418.78;4969821;28;20691;-56
2022/10/26 07:30:27;;;;;;;3.67;1.92;;;14.40;99.90;;;14.08;100.00;97418.78;4971438;28;20206;-56
2022/10/26 07:33:12;;;;;;;5.93;2.00;;;14.50;99.90;;;14.11;100.00;97430.09;4967767;28;20042;-56
2022/10/26 07:35:38;;;;;;;3.85;1.63;;;14.50;99.90;;;14.15;100.00;97432.59;4962002;28;20026;-58
2022/10/26 07:38:04;;;;;;;5.05;2.05;;;14.60;99.90;;;14.17;100.00;97434.22;4970624;28;20139;-59
2022/10/26 07:40:30;;;;;;;2.92;1.67;;;14.60;99.90;;;14.24;100.00;97429.47;4972465;28;20030;-56
2022/10/26 07:42:58;;;;;;;8.40;1.60;;;14.60;99.90;;;14.30;100.00;97450.38;4971906;28;20050;-56
2022/10/26 07:45:25;;;;;;;2.85;1.70;;;14.70;99.90;;;14.37;100.00;97446.47;4969825;28;20255;-56
2022/10/26 07:47:51;;;;;;;4.75;2.30;;;14.80;99.90;;;14.36;100.00;97447.41;4967136;28;20026;-56
2022/10/26 07:50:17;;;;;;;9.45;1.95;;;14.80;99.90;;;14.45;100.00;97449.59;4970866;28;20022;-56
2022/10/26 07:52:42;;;;;;;5.53;2.10;;;14.90;99.90;;;14.49;100.00;97448.47;4970199;28;20122;-56
2022/10/26 07:55:10;;;;;;;5.28;1.77;;;14.90;99.90;;;14.57;100.00;97458.72;4965500;28;20041;-56
2022/10/26 07:57:36;;;;;;;4.78;2.00;;;15.00;99.90;;;14.62;100.00;97451.38;4973625;28;20038;-56
2022/10/26 08:00:04;;;;;;;5.43;1.80;;;15.00;99.90;;;14.66;100.00;97457.38;4972266;28;20121;-56
2022/10/26 08:02:29;;;;;;;7.07;1.83;;;15.10;99.90;;;14.72;100.00;97456.25;4975039;28;20031;-56
2022/10/26 08:04:55;;;;;;;3.97;2.10;;;15.10;99.90;;;14.75;100.00;97456.94;4969289;28;20042;-56
2022/10/26 08:07:21;;;;;;;4.45;1.73;;;15.20;99.90;;;14.87;100.00;97458.06;4973358;28;20089;-56
2022/10/26 08:09:46;;;;;;;4.18;1.70;;;15.30;99.90;;;14.94;100.00;97456.78;4974498;28;20041;-56
2022/10/26 08:12:15;;;;;;;3.75;1.90;;;15.40;99.90;;;15.01;100.00;97452.88;4974438;28;20042;-56
2022/10/26 08:14:42;;;;;;;5.47;1.60;;;15.40;99.90;;;15.12;100.00;97456.75;4971361;28;20042;-56
2022/10/26 08:17:07;;;;;;;3.85;1.88;;;15.50;99.90;;;15.17;100.00;97457.34;4971461;28;20109;-56
2022/10/26 08:19:33;;;;;;;5.43;1.92;;;15.60;99.90;;;15.19;100.00;97460.78;4974960;28;20040;-56
2022/10/26 08:21:59;;;;;;;5.97;2.03;;;15.60;99.90;;;15.21;100.00;97453.59;4972955;28;20141;-56
2022/10/26 08:24:25;;;;;;;7.15;2.00;;;15.60;99.90;;;15.27;100.00;97455.88;4973133;28;20057;-56
2022/10/26 08:26:51;;;;;;;7.93;1.90;;;15.70;99.90;;;15.36;100.00;97463.38;4968577;28;20084;-56
2022/10/26 08:29:16;;;;;;;3.08;1.55;;;15.80;99.90;;;15.46;100.00;97464.56;4974566;28;20049;-56
2022/10/26 08:31:42;;;;;;;4.03;2.03;;;15.90;99.90;;;15.51;100.00;97460.81;4967204;28;20525;-56
2022/10/26 08:34:08;;;;;;;4.43;2.00;;;16.00;99.90;;;15.60;100.00;97460.28;4971299;28;20041;-56
2022/10/26 08:36:34;;;;;;;6.75;1.90;;;16.00;99.90;;;15.65;100.00;97455.59;4973190;28;20493;-56
2022/10/26 08:38:59;;;;;;;5.10;1.75;;;16.10;99.90;;;15.70;100.00;97460.63;4976687;28;20336;-56
2022/10/26 08:41:43;;;;;;;5.45;1.83;;;16.10;99.90;;;15.69;100.00;97465.09;4972090;28;20399;-56
2022/10/26 08:44:30;;;;;;;2.83;1.55;;;16.10;99.90;;;15.65;100.00;97468.88;4972893;28;20115;-56
2022/10/26 08:47:21;;;;;;;4.43;2.13;;;16.00;99.90;;;15.61;100.00;97469.97;4967672;28;20501;-56
2022/10/26 08:50:00;;;;;;;7.32;2.03;;;16.00;99.90;;;15.61;100.00;97477.94;4968891;28;20030;-56
2022/10/26 08:52:36;;;;;;;7.30;2.10;;;16.10;99.90;;;15.64;100.00;97473.31;4973361;28;20026;-56
2022/10/26 08:55:03;;;;;;;6.10;2.10;;;16.10;99.90;;;15.72;100.00;97480.00;4968136;28;20685;-56
2022/10/26 08:57:40;;;;;;;4.22;2.30;;;16.10;99.90;;;15.83;100.00;97490.94;4972762;28;20033;-56
2022/10/26 09:00:11;;;;;;;8.43;2.00;;;16.20;99.90;;;15.94;100.00;97495.66;4969989;28;21413;-56
2022/10/26 09:02:37;;;;;;;6.97;2.60;;;16.40;99.90;;;16.08;100.00;97503.69;4972474;28;20057;-56
2022/10/26 09:05:04;;;;;;;4.18;1.80;;;16.50;99.90;;;16.23;100.00;97497.47;4962823;28;20045;-59
2022/10/26 09:07:58;;;;;;;2.60;2.00;;;16.60;99.90;;;16.38;100.00;97495.72;4971022;28;20034;-57
2022/10/26 09:10:46;;;;;;;2.92;1.90;;;16.70;99.90;;;16.56;100.00;97504.44;4968711;28;20440;-57
2022/10/26 09:13:47;;;;;;;3.60;1.80;;;16.90;99.90;;;16.74;100.00;97509.56;4971640;28;20035;-57
2022/10/26 09:16:52;;;;;;;7.78;2.20;;;17.10;99.90;;;16.84;100.00;97507.28;4966073;28;20146;-57
2022/10/26 09:19:43;;;;;;;3.75;1.70;;;17.20;99.90;;;16.96;100.00;97507.38;4973617;28;20030;-57
2022/10/26 09:22:22;;;;;;;5.80;1.95;;;17.30;99.90;;;16.98;100.00;97515.28;4970680;28;20087;-57
2022/10/26 09:24:56;;;;;;;5.47;2.00;;;17.40;99.90;;;17.08;100.00;97520.88;4975296;28;20185;-57
2022/10/26 09:27:34;;;;;;;3.58;1.88;;;17.50;99.90;;;17.10;100.00;97511.88;4967653;28;20504;-57
2022/10/26 09:30:12;;;;;;;5.18;1.95;;;17.50;99.90;;;17.11;100.00;97523.38;4971779;28;20038;-58
2022/10/26 09:32:43;;;;;;;4.07;1.90;;;17.50;99.90;;;17.10;100.00;97525.19;4968454;28;20105;-58
2022/10/26 09:35:24;;;;;;;8.32;1.83;;;17.50;99.90;;;17.03;100.00;97522.97;4969949;28;20030;-58
2022/10/26 09:38:23;;;;;;;4.20;1.95;;;17.40;99.90;;;16.93;100.00;97533.34;4969790;28;20030;-58
2022/10/26 09:41:02;;;;;;;5.13;2.03;;;17.30;99.90;;;16.87;100.00;97541.69;4971372;28;20393;-58
2022/10/26 09:43:56;;;;;;;7.70;1.80;;;17.20;99.90;;;16.80;100.00;97544.69;4966993;28;20034;-57
2022/10/26 09:46:59;;;;;;;5.28;1.90;;;17.20;99.90;;;16.76;100.00;97536.97;4969486;28;20038;-57
2022/10/26 09:49:44;;;;;;;5.47;1.58;;;17.10;99.90;;;16.78;100.00;97543.94;4969541;28;20045;-57
2022/10/26 09:52:09;;;;;;;10.00;1.83;;;17.20;99.90;;;16.81;100.00;97550.88;4969913;28;20034;-58
2022/10/26 09:54:35;;;;;;;5.63;2.20;;;17.20;99.90;;;16.85;100.00;97546.25;4967553;28;20034;-58
2022/10/26 09:57:03;;;;;;;6.50;2.10;;;17.20;99.90;;;17.02;100.00;97537.25;4964483;28;20038;-58
2022/10/26 09:59:33;;;;;;;6.78;2.08;;;17.40;99.90;;;17.15;100.00;97538.22;4968367;28;20354;-58
2022/10/26 10:01:58;;;;;;;8.00;2.28;;;17.60;99.90;;;17.43;100.00;97557.84;4967393;28;20038;-58
2022/10/26 10:04:27;;;;;;;4.47;1.73;;;17.80;99.90;;;17.59;100.00;97555.94;4967749;28;20132;-57
2022/10/26 10:07:15;;;;;;;8.55;1.92;;;18.00;99.90;;;17.72;100.00;97556.00;4967753;28;20026;-57
2022/10/26 10:09:41;;;;;;;3.72;1.88;;;18.10;99.90;;;17.84;100.00;97562.38;4968997;28;20041;-58
2022/10/26 10:12:19;;;;;;;4.78;1.77;;;18.20;99.90;;;17.91;100.00;97553.91;4972067;28;20038;-57
2022/10/26 10:14:56;;;;;;;4.47;1.88;;;18.20;99.90;;;17.95;100.00;97565.25;4968619;28;20029;-58
2022/10/26 10:17:23;;;;;;;10.18;2.05;;;18.30;99.90;;;17.96;100.00;97566.09;4968822;28;20054;-58
2022/10/26 10:19:49;;;;;;;4.18;1.48;;;18.30;99.90;;;18.06;100.00;97564.56;4968678;28;20042;-58
2022/10/26 10:22:17;;;;;;;11.85;2.10;;;18.40;99.90;;;18.04;100.00;97572.66;4968671;28;20392;-57
2022/10/26 10:25:00;;;;;;;4.22;1.50;;;18.40;99.90;;;18.04;100.00;97582.47;4972164;28;20042;-58
2022/10/26 10:27:27;;;;;;;;;;;18.40;99.90;;;18.06;100.00;97577.91;4970433;28;20723;-56
2022/10/26 10:29:58;;;;;;;7.40;1.77;;;18.40;99.90;;;18.19;100.00;97581.47;4961504;28;20383;-57
2022/10/26 10:32:31;;;;;;;4.50;1.50;;;18.50;99.90;;;18.38;100.00;97586.47;4976553;28;20122;-57